createdAt,value
2023-02-11T00:01:25.933Z,26.92
2023-02-11T00:03:54.173Z,24.55
2023-02-11T00:06:22.592Z,21.88
2023-02-11T00:08:50.404Z,16.75
2023-02-11T00:11:22.188Z,24.08
2023-02-11T00:13:50.382Z,23.30
2023-02-11T00:16:20.140Z,19.67
2023-02-11T00:18:48.612Z,16.42
2023-02-11T00:21:18.718Z,16.27
2023-02-11T00:23:47.433Z,25.58
2023-02-11T00:26:16.284Z,19.27
2023-02-11T00:28:46.499Z,20.48
2023-02-11T00:31:14.961Z,21.55
2023-02-11T00:33:43.085Z,21.90
2023-02-11T00:36:14.837Z,22.10
2023-02-11T00:38:44.242Z,23.85
2023-02-11T00:41:13.047Z,22.73
2023-02-11T00:43:41.075Z,23.17
2023-02-11T00:46:10.714Z,25.13
2023-02-11T00:48:38.870Z,21.88
2023-02-11T00:51:08.249Z,17.73
2023-02-11T00:53:37.270Z,18.30
2023-02-11T00:56:06.117Z,18.42
2023-02-11T00:58:33.939Z,23.23
2023-02-11T01:01:01.904Z,22.67
2023-02-11T01:03:31.194Z,21.08
2023-02-11T01:05:59.144Z,20.30
2023-02-11T01:08:27.093Z,34.40
2023-02-11T01:10:56.423Z,33.90
2023-02-11T01:13:24.968Z,17.92
2023-02-11T01:15:53.070Z,18.63
2023-02-11T01:18:20.981Z,23.60
2023-02-11T01:20:50.200Z,26.02
2023-02-11T01:23:18.024Z,24.58
2023-02-11T01:25:46.493Z,24.05
2023-02-11T01:28:18.556Z,19.73
2023-02-11T01:30:46.528Z,24.58
2023-02-11T01:33:14.562Z,21.67
2023-02-11T01:35:44.340Z,23.13
2023-02-11T01:38:16.729Z,24.13
2023-02-11T01:40:48.566Z,22.10
2023-02-11T01:43:16.383Z,17.92
2023-02-11T01:46:13.756Z,23.23
2023-02-11T01:48:45.378Z,16.52
2023-02-11T01:51:17.990Z,18.63
2023-02-11T01:54:06.300Z,24.70
2023-02-11T01:56:53.840Z,14.02
2023-02-11T01:59:25.528Z,17.25
2023-02-11T02:01:59.974Z,15.32
2023-02-11T02:04:32.053Z,19.50
2023-02-11T02:07:04.715Z,20.27
2023-02-11T02:09:38.797Z,23.17
2023-02-11T02:12:06.991Z,24.48
2023-02-11T02:14:34.810Z,22.73
2023-02-11T02:17:02.643Z,18.35
2023-02-11T02:20:03.045Z,21.63
2023-02-11T02:23:10.456Z,15.48
2023-02-11T02:26:05.715Z,20.00
2023-02-11T02:28:59.415Z,18.13
2023-02-11T02:31:58.485Z,17.77
2023-02-11T02:34:36.124Z,18.55
2023-02-11T02:37:09.310Z,18.27
2023-02-11T02:39:38.387Z,22.27
2023-02-11T02:42:06.914Z,20.55
2023-02-11T02:44:35.092Z,38.45
2023-02-11T02:47:02.860Z,25.13
2023-02-11T02:49:31.972Z,20.00
2023-02-11T02:52:28.207Z,50.17
2023-02-11T02:55:13.234Z,34.50
2023-02-11T02:57:57.511Z,19.55
2023-02-11T03:00:31.246Z,23.23
2023-02-11T03:03:17.061Z,44.70
2023-02-11T03:05:54.025Z,22.67
2023-02-11T03:08:30.017Z,37.90
2023-02-11T03:10:59.108Z,21.10
2023-02-11T03:13:33.388Z,15.68
2023-02-11T03:16:05.744Z,46.13
2023-02-11T03:18:36.317Z,33.75
2023-02-11T03:21:09.249Z,17.95
2023-02-11T03:23:40.554Z,13.90
2023-02-11T03:26:17.474Z,16.05
2023-02-11T03:28:50.666Z,14.77
2023-02-11T03:31:23.283Z,16.58
2023-02-11T03:33:58.378Z,16.95
2023-02-11T03:36:33.679Z,15.10
2023-02-11T03:39:04.809Z,17.85
2023-02-11T03:41:34.674Z,15.05
2023-02-11T03:44:03.775Z,15.63
2023-02-11T03:46:34.483Z,13.57
2023-02-11T03:49:05.203Z,17.45
2023-02-11T03:51:36.141Z,20.15
2023-02-11T03:54:11.392Z,23.67
2023-02-11T03:56:48.204Z,17.67
2023-02-11T03:59:15.951Z,17.92
2023-02-11T04:01:43.753Z,22.25
2023-02-11T04:04:11.936Z,21.60
2023-02-11T04:06:41.413Z,21.98
2023-02-11T04:09:09.164Z,19.55
2023-02-11T04:11:37.062Z,17.25
2023-02-11T04:14:04.889Z,18.40
2023-02-11T04:16:32.721Z,22.70
2023-02-11T04:19:01.631Z,17.52
2023-02-11T04:21:29.482Z,18.17
2023-02-11T04:23:58.629Z,11.77
2023-02-11T04:26:26.408Z,17.77
2023-02-11T04:28:54.148Z,29.27
2023-02-11T04:31:21.983Z,20.67
2023-02-11T04:33:49.822Z,18.42
2023-02-11T04:36:17.646Z,15.88
2023-02-11T04:38:45.436Z,16.73
2023-02-11T04:41:14.630Z,17.63
2023-02-11T04:43:42.411Z,14.75
2023-02-11T04:46:10.292Z,15.95
2023-02-11T04:48:38.222Z,23.35
2023-02-11T04:51:06.165Z,20.00
2023-02-11T04:53:33.887Z,16.45
2023-02-11T04:56:01.682Z,18.13
2023-02-11T04:58:30.824Z,17.48
2023-02-11T05:01:06.900Z,19.45
2023-02-11T05:03:34.950Z,16.00
2023-02-11T05:06:02.752Z,29.38
2023-02-11T05:08:30.552Z,27.60
2023-02-11T05:10:58.739Z,29.50
2023-02-11T05:13:26.681Z,32.63
2023-02-11T05:15:56.215Z,25.23
2023-02-11T05:18:24.245Z,38.55
2023-02-11T05:20:51.969Z,23.27
2023-02-11T05:23:19.741Z,36.33
2023-02-11T05:25:47.457Z,14.80
2023-02-11T05:28:15.345Z,28.00
2023-02-11T05:30:43.167Z,29.98
2023-02-11T05:33:12.348Z,31.73
2023-02-11T05:35:40.053Z,15.23
2023-02-11T05:38:07.872Z,19.58
2023-02-11T05:40:35.620Z,24.17
2023-02-11T05:43:03.583Z,25.90
2023-02-11T05:45:31.327Z,22.15
2023-02-11T05:47:59.186Z,38.63
2023-02-11T05:50:28.351Z,21.70
2023-02-11T05:52:56.380Z,55.50
2023-02-11T05:55:24.312Z,18.60
2023-02-11T05:57:52.107Z,24.00
2023-02-11T06:00:20.216Z,31.27
2023-02-11T06:02:48.104Z,19.60
2023-02-11T06:05:15.850Z,35.78
2023-02-11T06:07:45.010Z,25.58
2023-02-11T06:10:13.592Z,31.48
2023-02-11T06:12:41.507Z,33.38
2023-02-11T06:15:09.549Z,19.33
2023-02-11T06:17:37.515Z,27.35
2023-02-11T06:20:07.550Z,17.50
2023-02-11T06:22:35.655Z,53.22
2023-02-11T06:25:05.242Z,36.50
2023-02-11T06:27:33.097Z,25.50
2023-02-11T06:30:00.854Z,9.05
2023-02-11T06:32:43.315Z,15.35
2023-02-11T06:35:12.691Z,34.15
2023-02-11T06:37:40.993Z,26.85
2023-02-11T06:40:11.014Z,24.50
2023-02-11T06:42:39.523Z,28.63
2023-02-11T06:45:09.444Z,20.38
2023-02-11T06:47:37.627Z,27.48
2023-02-11T06:50:06.046Z,21.42
2023-02-11T06:52:33.920Z,12.95
2023-02-11T06:55:02.555Z,19.60
2023-02-11T06:57:33.284Z,12.35
2023-02-11T07:00:01.048Z,48.55
2023-02-11T07:02:28.927Z,30.00
2023-02-11T07:04:56.688Z,25.58
2023-02-11T07:07:24.526Z,26.23
2023-02-11T07:09:52.291Z,34.60
2023-02-11T07:12:20.298Z,27.80
2023-02-11T07:14:49.357Z,37.60
2023-02-11T07:17:17.250Z,10.85
2023-02-11T07:19:45.063Z,26.65
2023-02-11T07:22:12.939Z,12.10
2023-02-11T07:24:40.708Z,29.52
2023-02-11T07:27:08.482Z,15.35
2023-02-11T07:29:36.267Z,18.25
2023-02-11T07:32:05.575Z,11.45
2023-02-11T07:34:33.411Z,10.05
2023-02-11T07:37:01.275Z,12.27
2023-02-11T07:39:29.462Z,14.63
2023-02-11T07:41:57.529Z,39.17
2023-02-11T07:44:25.387Z,13.38
2023-02-11T07:46:53.344Z,12.10
2023-02-11T07:49:22.475Z,29.25
2023-02-11T07:51:51.273Z,15.90
2023-02-11T07:54:19.301Z,13.88
2023-02-11T07:56:47.153Z,19.95
2023-02-11T07:59:15.017Z,16.52
2023-02-11T08:01:42.817Z,23.33
2023-02-11T08:04:10.670Z,19.88
2023-02-11T08:06:42.792Z,21.80
2023-02-11T08:09:14.915Z,31.92
2023-02-11T08:11:42.800Z,21.17
2023-02-11T08:14:11.116Z,28.20
2023-02-11T08:16:39.859Z,22.15
2023-02-11T08:19:11.332Z,21.63
2023-02-11T08:21:41.078Z,23.60
2023-02-11T08:24:09.587Z,16.88
2023-02-11T08:26:37.857Z,15.07
2023-02-11T08:29:10.277Z,20.90
2023-02-11T08:31:40.144Z,42.97
2023-02-11T08:34:08.312Z,23.23
2023-02-11T08:36:38.190Z,18.83
2023-02-11T08:39:19.372Z,22.70
2023-02-11T08:41:49.467Z,25.17
2023-02-11T08:44:17.291Z,22.13
2023-02-11T08:46:45.108Z,22.40
2023-02-11T08:49:12.849Z,29.92
2023-02-11T08:51:41.121Z,26.55
2023-02-11T08:54:10.458Z,38.20
2023-02-11T08:56:38.955Z,14.60
2023-02-11T08:59:07.274Z,19.58
2023-02-11T09:01:35.638Z,33.92
2023-02-11T09:04:03.512Z,30.95
2023-02-11T09:06:31.515Z,11.35
2023-02-11T09:09:00.011Z,17.30
2023-02-11T09:11:32.206Z,26.45
2023-02-11T09:14:00.144Z,36.67
2023-02-11T09:16:29.851Z,19.65
2023-02-11T09:18:58.655Z,12.00
2023-02-11T09:21:27.277Z,13.20
2023-02-11T09:23:55.338Z,20.27
2023-02-11T09:26:25.254Z,11.55
2023-02-11T09:28:54.664Z,38.97
2023-02-11T09:31:24.794Z,12.30
2023-02-11T09:33:56.344Z,39.03
2023-02-11T09:36:25.974Z,45.95
2023-02-11T09:38:53.936Z,36.22
2023-02-11T09:41:34.747Z,34.72
2023-02-11T09:44:07.267Z,40.47
2023-02-11T09:46:39.002Z,26.65
2023-02-11T09:49:08.570Z,29.83
2023-02-11T09:51:43.235Z,26.48
2023-02-11T09:54:17.992Z,18.20
2023-02-11T09:56:45.823Z,22.55
2023-02-11T09:59:17.494Z,17.33
2023-02-11T10:01:51.336Z,31.83
2023-02-11T10:04:34.500Z,20.75
2023-02-11T10:07:11.499Z,23.92
2023-02-11T10:09:52.520Z,25.45
2023-02-11T10:12:36.120Z,20.00
2023-02-11T10:15:16.097Z,16.42
2023-02-11T10:17:57.968Z,18.80
2023-02-11T10:20:34.664Z,29.67
2023-02-11T10:23:10.295Z,23.80
2023-02-11T10:25:40.378Z,23.58
2023-02-11T10:28:15.430Z,32.78
2023-02-11T10:30:53.913Z,20.70
2023-02-11T10:33:27.692Z,18.55
2023-02-11T10:38:23.153Z,21.88
2023-02-11T10:40:51.214Z,25.98
2023-02-11T10:43:24.728Z,20.77
2023-02-11T10:45:55.330Z,23.65
2023-02-11T10:48:41.507Z,27.80
2023-02-11T10:51:17.018Z,21.02
2023-02-11T10:53:45.610Z,20.00
2023-02-11T10:56:22.092Z,20.90
2023-02-11T10:58:57.477Z,23.80
2023-02-11T11:01:40.612Z,23.25
2023-02-11T11:04:28.493Z,24.90
2023-02-11T11:06:56.668Z,22.63
2023-02-11T11:09:30.366Z,23.70
2023-02-11T11:11:58.286Z,22.23
2023-02-11T11:14:29.037Z,21.63
2023-02-11T11:16:58.136Z,21.08
2023-02-11T11:19:26.807Z,20.85
2023-02-11T11:21:56.670Z,21.15
2023-02-11T11:24:32.305Z,19.92
2023-02-11T11:27:02.865Z,19.30
2023-02-11T11:29:35.927Z,18.27
2023-02-11T11:32:12.418Z,20.88
2023-02-11T11:34:42.865Z,17.83
2023-02-11T11:37:15.948Z,18.08
2023-02-11T11:39:57.381Z,15.75
2023-02-11T11:42:30.073Z,20.42
2023-02-11T11:45:00.163Z,19.45
2023-02-11T11:47:36.018Z,18.65
2023-02-11T11:50:26.716Z,17.38
2023-02-11T11:53:01.419Z,19.00
2023-02-11T11:55:36.008Z,16.17
2023-02-11T11:58:03.844Z,20.90
2023-02-11T12:00:37.675Z,17.48
2023-02-11T12:03:39.681Z,16.52
2023-02-11T12:06:19.295Z,17.92
2023-02-11T12:08:57.980Z,17.38
2023-02-11T12:11:34.546Z,21.00
2023-02-11T12:14:13.599Z,22.60
2023-02-11T12:16:54.402Z,21.55
2023-02-11T12:19:54.918Z,21.35
2023-02-11T12:22:36.021Z,17.45
2023-02-11T12:25:27.424Z,20.13
2023-02-11T12:28:08.462Z,16.00
2023-02-11T12:30:54.591Z,14.23
2023-02-11T12:33:41.784Z,17.52
2023-02-11T12:36:19.942Z,16.10
2023-02-11T12:39:01.348Z,17.15
2023-02-11T12:42:04.147Z,17.33
2023-02-11T12:44:43.228Z,16.00
2023-02-11T12:47:17.954Z,14.45
2023-02-11T12:49:57.897Z,13.45
2023-02-11T12:52:40.426Z,13.90
2023-02-11T12:55:15.323Z,14.13
2023-02-11T12:57:44.190Z,13.32
2023-02-11T13:00:18.462Z,13.63
2023-02-11T13:02:54.425Z,16.05
2023-02-11T13:05:30.544Z,10.88
2023-02-11T13:08:06.897Z,14.02
2023-02-11T13:10:37.633Z,9.13
2023-02-11T13:13:18.052Z,10.55
2023-02-11T13:15:49.763Z,8.77
2023-02-11T13:18:49.321Z,9.48
2023-02-11T13:21:27.676Z,10.70
2023-02-11T13:24:05.512Z,8.20
2023-02-11T13:26:40.585Z,6.63
2023-02-11T13:29:20.548Z,10.43
2023-02-11T13:31:55.358Z,9.80
2023-02-11T13:34:47.556Z,8.45
2023-02-11T13:37:23.292Z,10.48
2023-02-11T13:40:00.049Z,6.88
2023-02-11T13:42:28.472Z,8.27
2023-02-11T13:44:57.239Z,8.52
2023-02-11T13:47:32.251Z,9.65
2023-02-11T13:50:02.639Z,6.65
2023-02-11T13:52:32.814Z,6.13
2023-02-11T13:55:10.619Z,8.35
2023-02-11T13:57:40.685Z,6.75
2023-02-11T14:00:48.481Z,5.75
2023-02-11T14:03:46.187Z,7.10
2023-02-11T14:06:37.576Z,10.35
2023-02-11T14:09:39.561Z,7.05
2023-02-11T14:12:36.804Z,7.55
2023-02-11T14:15:28.476Z,7.68
2023-02-11T14:17:56.734Z,6.75
2023-02-11T14:20:41.974Z,6.95
2023-02-11T14:23:24.450Z,7.97
2023-02-11T14:26:05.841Z,6.43
2023-02-11T14:28:35.944Z,6.30
2023-02-11T14:31:11.463Z,11.13
2023-02-11T14:33:56.389Z,7.40
2023-02-11T14:36:47.956Z,7.78
2023-02-11T14:39:27.539Z,6.78
2023-02-11T14:41:56.232Z,10.65
2023-02-11T14:44:28.206Z,10.25
2023-02-11T14:46:56.640Z,6.97
2023-02-11T14:49:28.411Z,7.70
2023-02-11T14:52:01.377Z,13.10
2023-02-11T14:54:30.321Z,12.25
2023-02-11T14:57:11.241Z,7.13
2023-02-11T14:59:41.035Z,5.38
2023-02-11T15:02:23.558Z,6.18
2023-02-11T15:04:51.378Z,6.78
2023-02-11T15:07:19.556Z,6.60
2023-02-11T15:09:50.208Z,8.60
2023-02-11T15:12:23.656Z,5.97
2023-02-11T15:14:56.114Z,5.60
2023-02-11T15:17:27.355Z,6.67
2023-02-11T15:19:57.851Z,6.22
2023-02-11T15:22:28.204Z,8.75
2023-02-11T15:25:00.474Z,5.18
2023-02-11T15:27:28.438Z,8.32
2023-02-11T15:29:57.510Z,7.57
2023-02-11T15:32:27.017Z,7.35
2023-02-11T15:34:56.848Z,5.05
2023-02-11T15:37:26.500Z,8.73
2023-02-11T15:39:55.391Z,11.98
2023-02-11T15:42:26.484Z,8.57
2023-02-11T15:47:53.082Z,6.18
2023-02-11T15:50:22.899Z,9.77
2023-02-11T15:52:51.813Z,7.63
2023-02-11T15:55:20.823Z,7.85
2023-02-11T15:57:57.484Z,5.32
2023-02-11T16:00:30.270Z,5.88
2023-02-11T16:02:59.543Z,4.57
2023-02-11T16:05:31.446Z,4.57
2023-02-11T16:08:00.416Z,11.27
2023-02-11T16:10:30.551Z,5.53
2023-02-11T16:13:18.193Z,10.30
2023-02-11T16:15:52.363Z,4.43
2023-02-11T16:18:38.636Z,4.90
2023-02-11T16:21:09.097Z,7.80
2023-02-11T16:23:39.313Z,5.85
2023-02-11T16:26:11.171Z,6.63
2023-02-11T16:28:39.112Z,9.52
2023-02-11T16:31:07.160Z,8.25
2023-02-11T16:33:36.380Z,7.10
2023-02-11T16:36:12.618Z,5.95
2023-02-11T16:38:40.399Z,7.57
2023-02-11T16:41:08.787Z,4.82
2023-02-11T16:43:36.674Z,3.05
2023-02-11T16:46:05.728Z,5.38
2023-02-11T16:48:34.690Z,4.55
2023-02-11T16:51:04.559Z,5.35
2023-02-11T16:53:32.315Z,6.00
2023-02-11T16:56:00.224Z,4.20
2023-02-11T16:58:27.992Z,3.70
2023-02-11T17:00:57.059Z,4.03
2023-02-11T17:03:30.072Z,9.60
2023-02-11T17:05:58.403Z,11.52
2023-02-11T17:08:27.620Z,7.30
2023-02-11T17:10:55.442Z,5.93
2023-02-11T17:13:23.245Z,11.60
2023-02-11T17:15:51.502Z,6.63
2023-02-11T17:18:19.383Z,5.47
2023-02-11T17:20:47.550Z,5.82
2023-02-11T17:23:15.452Z,3.95
2023-02-11T17:25:44.643Z,5.22
2023-02-11T17:28:13.043Z,7.25
2023-02-11T17:30:42.363Z,5.70
2023-02-11T17:33:10.341Z,9.60
2023-02-11T17:35:40.899Z,4.95
2023-02-11T17:38:08.687Z,6.90
2023-02-11T17:40:36.381Z,4.40
2023-02-11T17:43:05.615Z,9.30
2023-02-11T17:45:33.439Z,7.80
2023-02-11T17:48:01.393Z,7.63
2023-02-11T17:50:29.598Z,6.63
2023-02-11T17:52:58.177Z,10.48
2023-02-11T17:55:25.970Z,8.57
2023-02-11T17:57:53.759Z,9.38
2023-02-11T18:00:23.717Z,6.05
2023-02-11T18:02:51.552Z,9.75
2023-02-11T18:05:19.251Z,13.98
2023-02-11T18:07:48.024Z,9.15
2023-02-11T18:10:15.820Z,10.55
2023-02-11T18:12:43.684Z,11.60
2023-02-11T18:15:12.000Z,11.77
2023-02-11T18:17:41.056Z,11.82
2023-02-11T18:20:10.032Z,12.10
2023-02-11T18:22:40.135Z,8.15
2023-02-11T18:25:09.472Z,8.05
2023-02-11T18:27:37.214Z,9.18
2023-02-11T18:30:05.781Z,8.30
2023-02-11T18:32:33.527Z,9.55
2023-02-11T18:35:02.638Z,11.38
2023-02-11T18:37:30.369Z,11.48
2023-02-11T18:39:58.164Z,8.07
2023-02-11T18:42:25.985Z,12.05
2023-02-11T18:44:53.741Z,6.45
2023-02-11T18:47:21.449Z,7.95
2023-02-11T18:49:49.230Z,11.50
2023-02-11T18:52:18.353Z,6.85
2023-02-11T18:54:46.275Z,9.40
2023-02-11T18:57:13.982Z,12.95
2023-02-11T18:59:42.910Z,10.88
2023-02-11T19:02:10.829Z,14.93
2023-02-11T19:04:38.650Z,17.55
2023-02-11T19:07:06.474Z,9.43
2023-02-11T19:09:35.637Z,11.45
2023-02-11T19:12:04.646Z,10.10
2023-02-11T19:14:34.161Z,12.65
2023-02-11T19:17:04.533Z,9.23
2023-02-11T19:19:34.320Z,7.93
2023-02-11T19:22:03.764Z,12.57
2023-02-11T19:24:31.984Z,9.45
2023-02-11T19:27:03.054Z,10.02
2023-02-11T19:29:32.104Z,10.95
2023-02-11T19:31:59.957Z,9.45
2023-02-11T19:34:27.905Z,9.98
2023-02-11T19:36:56.709Z,8.68
2023-02-11T19:39:24.825Z,19.75
2023-02-11T19:41:52.642Z,9.10
2023-02-11T19:44:21.703Z,15.35
2023-02-11T19:46:50.263Z,10.38
2023-02-11T19:49:22.884Z,11.75
2023-02-11T19:51:50.767Z,9.30
2023-02-11T19:54:18.632Z,7.07
2023-02-11T19:56:49.424Z,9.35
2023-02-11T19:59:17.290Z,13.02
2023-02-11T20:01:47.801Z,12.02
2023-02-11T20:04:16.737Z,9.00
2023-02-11T20:06:44.683Z,8.65
2023-02-11T20:09:14.917Z,9.88
2023-02-11T20:11:43.055Z,12.15
2023-02-11T20:14:14.685Z,8.35
2023-02-11T20:16:49.010Z,4.82
2023-02-11T20:19:21.352Z,7.88
2023-02-11T20:21:52.135Z,13.63
2023-02-11T20:24:20.522Z,8.02
2023-02-11T20:26:49.122Z,6.38
2023-02-11T20:29:17.474Z,6.25
2023-02-11T20:31:45.897Z,9.57
2023-02-11T20:34:13.707Z,8.80
2023-02-11T20:36:42.797Z,9.93
2023-02-11T20:39:17.058Z,6.13
2023-02-11T20:41:46.029Z,10.80
2023-02-11T20:44:14.376Z,9.65
2023-02-11T20:46:45.903Z,7.30
2023-02-11T20:49:14.539Z,10.63
2023-02-11T20:51:44.222Z,8.77
2023-02-11T20:54:13.324Z,12.05
2023-02-11T20:56:41.509Z,8.88
2023-02-11T20:59:09.511Z,7.43
2023-02-11T21:01:40.617Z,7.57
2023-02-11T21:04:11.976Z,6.30
2023-02-11T21:06:42.354Z,8.90
2023-02-11T21:09:14.301Z,9.20
2023-02-11T21:11:42.561Z,9.00
2023-02-11T21:14:11.056Z,9.70
2023-02-11T21:16:39.103Z,9.75
2023-02-11T21:19:07.549Z,7.70
2023-02-11T21:21:37.185Z,7.85
2023-02-11T21:24:05.550Z,8.95
2023-02-11T21:26:35.454Z,8.68
2023-02-11T21:29:03.244Z,5.68
2023-02-11T21:31:33.150Z,7.78
2023-02-11T21:34:01.250Z,6.72
2023-02-11T21:36:30.347Z,8.95
2023-02-11T21:38:58.252Z,6.18
2023-02-11T21:41:27.382Z,7.85
2023-02-11T21:43:56.556Z,6.65
2023-02-11T21:46:24.585Z,6.93
2023-02-11T21:48:52.976Z,8.80
2023-02-11T21:51:22.905Z,6.40
2023-02-11T21:53:54.549Z,7.57
2023-02-11T21:56:22.989Z,8.63
2023-02-11T21:58:54.461Z,10.60
2023-02-11T22:01:25.886Z,12.18
2023-02-11T22:03:54.224Z,9.65
2023-02-11T22:06:26.205Z,5.57
2023-02-11T22:08:54.967Z,9.23
2023-02-11T22:11:22.834Z,11.02
2023-02-11T22:13:54.988Z,10.95
2023-02-11T22:16:24.882Z,9.23
2023-02-11T22:18:52.862Z,8.15
2023-02-11T22:21:23.498Z,6.00
2023-02-11T22:23:52.151Z,11.55
2023-02-11T22:26:22.302Z,9.02
2023-02-11T22:28:50.332Z,5.60
2023-02-11T22:31:19.961Z,6.90
2023-02-11T22:33:49.470Z,7.78
2023-02-11T22:36:20.175Z,9.35
2023-02-11T22:38:48.192Z,8.32
2023-02-11T22:41:16.779Z,7.30
2023-02-11T22:43:45.761Z,6.38
2023-02-11T22:46:16.199Z,5.53
2023-02-11T22:48:43.987Z,9.05
2023-02-11T22:51:14.766Z,7.20
2023-02-11T22:53:43.639Z,4.68
2023-02-11T22:56:15.326Z,6.25
2023-02-11T22:58:44.238Z,10.43
2023-02-11T23:01:12.604Z,7.88
2023-02-11T23:03:41.003Z,7.53
2023-02-11T23:06:09.182Z,6.07
2023-02-11T23:08:39.884Z,9.32
2023-02-11T23:11:09.768Z,8.80
2023-02-11T23:13:40.326Z,10.00
2023-02-11T23:16:10.147Z,10.98
2023-02-11T23:18:40.241Z,8.85
2023-02-11T23:21:12.492Z,10.05
2023-02-11T23:23:41.780Z,9.23
2023-02-11T23:26:11.981Z,9.45
2023-02-11T23:28:40.159Z,8.48
2023-02-11T23:31:16.444Z,8.30
2023-02-11T23:33:44.687Z,6.28
2023-02-11T23:36:13.045Z,9.48
2023-02-11T23:38:42.367Z,10.95
2023-02-11T23:41:10.918Z,9.90
2023-02-11T23:43:39.070Z,8.35
2023-02-11T23:46:07.974Z,11.98
2023-02-11T23:48:36.629Z,7.30
2023-02-11T23:51:05.078Z,8.77
2023-02-11T23:53:32.831Z,7.22
2023-02-11T23:56:01.955Z,9.73
2023-02-11T23:58:29.975Z,10.15
